createdAt,value
2022-12-18T00:02:55.664Z,15.1
2022-12-18T00:12:57.173Z,15.1
2022-12-18T00:22:58.394Z,15.1
2022-12-18T00:32:59.630Z,15.1
2022-12-18T00:53:02.976Z,15.1
2022-12-18T01:03:04.840Z,15.1
2022-12-18T01:13:06.345Z,15.1
2022-12-18T01:23:07.977Z,15.1
2022-12-18T01:33:09.315Z,15.1
2022-12-18T01:43:11.416Z,15.1
2022-12-18T01:53:13.186Z,15.1
2022-12-18T03:43:29.689Z,15
2022-12-18T04:13:34.608Z,15
2022-12-18T04:33:38.204Z,15
2022-12-18T04:43:39.761Z,15
2022-12-18T04:53:40.856Z,15
2022-12-18T05:53:50.876Z,15
2022-12-18T06:03:52.626Z,15
2022-12-18T06:43:59.988Z,15
2022-12-18T06:54:00.178Z,15
2022-12-18T07:04:02.072Z,15
2022-12-18T07:14:03.985Z,15
2022-12-18T07:24:05.220Z,15
2022-12-18T07:44:08.458Z,15
2022-12-18T07:54:09.881Z,15
2022-12-18T08:14:12.265Z,15.1
2022-12-18T08:34:15.879Z,15.1
2022-12-18T08:44:17.685Z,15.1
2022-12-18T08:54:18.963Z,15.2
2022-12-18T09:14:28.515Z,15.2
2022-12-18T09:34:30.813Z,15.3
2022-12-18T09:44:32.369Z,15.3
2022-12-18T09:54:34.350Z,15.4
2022-12-18T10:14:37.384Z,15.4
2022-12-18T10:24:38.451Z,15.4
2022-12-18T10:34:40.473Z,15.4
2022-12-18T10:44:41.946Z,15.4
2022-12-18T10:54:43.412Z,15.4
2022-12-18T11:04:45.422Z,15.5
2022-12-18T11:14:47.575Z,15.5
2022-12-18T11:25:02.380Z,15.5
2022-12-18T11:34:53.522Z,15.5
2022-12-18T11:44:52.416Z,15.5
2022-12-18T11:54:54.201Z,15.5
2022-12-18T12:04:55.552Z,15.5
2022-12-18T12:14:56.724Z,15.5
2022-12-18T12:24:58.290Z,15.5
2022-12-18T12:35:02.640Z,15.5
2022-12-18T12:45:01.682Z,15.6
2022-12-18T12:55:03.296Z,15.6
2022-12-18T13:05:04.994Z,15.6
2022-12-18T13:15:10.207Z,15.6
2022-12-18T13:25:07.648Z,15.6
2022-12-18T13:35:08.918Z,15.6
2022-12-18T13:45:10.216Z,15.6
2022-12-18T13:55:12.078Z,15.6
2022-12-18T14:05:13.526Z,15.6
2022-12-18T14:15:15.506Z,15.6
2022-12-18T14:25:16.992Z,15.6
2022-12-18T14:35:18.466Z,15.6
2022-12-18T14:45:19.818Z,15.6
2022-12-18T14:55:21.601Z,15.5
2022-12-18T15:05:23.283Z,15.5
2022-12-18T15:15:24.484Z,15.5
2022-12-18T15:25:25.558Z,15.5
2022-12-18T15:35:26.650Z,15.5
2022-12-18T15:45:27.841Z,15.5
2022-12-18T15:55:29.339Z,15.5
2022-12-18T16:05:31.400Z,15.5
2022-12-18T16:15:33.374Z,15.5
2022-12-18T16:25:34.592Z,15.6
2022-12-18T16:35:36.114Z,15.6
2022-12-18T16:45:37.217Z,15.6
2022-12-18T16:55:39.225Z,15.6
2022-12-18T17:05:40.846Z,15.6
2022-12-18T17:15:42.017Z,15.6
2022-12-18T17:25:43.828Z,15.6
2022-12-18T17:35:45.379Z,15.6
2022-12-18T17:45:46.911Z,15.6
2022-12-18T17:55:48.408Z,15.6
2022-12-18T18:05:49.821Z,15.6
2022-12-18T18:15:51.470Z,15.6
2022-12-18T18:25:53.390Z,15.6
2022-12-18T18:35:54.909Z,15.6
2022-12-18T18:45:56.355Z,15.6
2022-12-18T18:56:26.326Z,15.6
2022-12-18T19:05:59.804Z,15.6
2022-12-18T19:26:26.850Z,15.6
2022-12-18T19:36:03.933Z,15.6
2022-12-18T19:46:05.949Z,15.6
2022-12-18T19:56:07.830Z,15.6
2022-12-18T20:06:09.540Z,15.6
2022-12-18T20:16:11.044Z,15.5
2022-12-18T20:26:12.608Z,15.5
2022-12-18T20:36:14.406Z,15.5
2022-12-18T20:46:15.572Z,15.5
2022-12-18T20:56:17.816Z,15.6
2022-12-18T21:06:18.631Z,15.6
2022-12-18T21:16:19.961Z,15.6
2022-12-18T21:26:21.600Z,15.6
2022-12-18T21:36:22.844Z,15.6
2022-12-18T21:46:24.266Z,15.6
2022-12-18T21:56:25.496Z,15.6
2022-12-18T22:06:27.013Z,15.6
2022-12-18T22:16:28.768Z,15.6
2022-12-18T22:26:32.761Z,15.7
2022-12-18T22:36:32.180Z,15.7
2022-12-18T22:56:36.194Z,15.7
